sensor_id;sensor_type;location;lat;lon;timestamp;P1;durP1;ratioP1;P2;durP2;ratioP2
61038;SDS011;46919;45.816;3.104;2022-08-25T00:02:03;2.83;;;1.60;;
61038;SDS011;46919;45.816;3.104;2022-08-25T00:04:31;2.13;;;1.52;;
61038;SDS011;46919;45.816;3.104;2022-08-25T00:06:57;3.08;;;1.35;;
61038;SDS011;46919;45.816;3.104;2022-08-25T00:09:24;4.18;;;1.48;;
61038;SDS011;46919;45.816;3.104;2022-08-25T00:11:51;2.78;;;1.27;;
61038;SDS011;46919;45.816;3.104;2022-08-25T00:14:25;3.20;;;1.20;;
61038;SDS011;46919;45.816;3.104;2022-08-25T00:16:53;4.00;;;1.20;;
61038;SDS011;46919;45.816;3.104;2022-08-25T00:19:21;3.50;;;1.13;;
61038;SDS011;46919;45.816;3.104;2022-08-25T00:21:49;3.55;;;1.60;;
61038;SDS011;46919;45.816;3.104;2022-08-25T00:24:16;4.57;;;1.73;;
61038;SDS011;46919;45.816;3.104;2022-08-25T00:26:44;3.85;;;1.35;;
61038;SDS011;46919;45.816;3.104;2022-08-25T00:29:12;2.92;;;1.52;;
61038;SDS011;46919;45.816;3.104;2022-08-25T00:31:38;2.70;;;1.52;;
61038;SDS011;46919;45.816;3.104;2022-08-25T00:34:08;2.13;;;1.20;;
61038;SDS011;46919;45.816;3.104;2022-08-25T00:36:36;5.45;;;1.42;;
61038;SDS011;46919;45.816;3.104;2022-08-25T00:39:03;5.40;;;1.55;;
61038;SDS011;46919;45.816;3.104;2022-08-25T00:41:30;2.63;;;1.20;;
61038;SDS011;46919;45.816;3.104;2022-08-25T00:43:56;4.78;;;1.58;;
61038;SDS011;46919;45.816;3.104;2022-08-25T00:46:29;3.40;;;1.50;;
61038;SDS011;46919;45.816;3.104;2022-08-25T00:48:58;3.65;;;1.58;;
61038;SDS011;46919;45.816;3.104;2022-08-25T00:51:28;2.95;;;1.50;;
61038;SDS011;46919;45.816;3.104;2022-08-25T00:54:07;4.80;;;1.55;;
61038;SDS011;46919;45.816;3.104;2022-08-25T00:56:36;3.50;;;1.50;;
61038;SDS011;46919;45.816;3.104;2022-08-25T00:59:02;6.00;;;1.60;;
61038;SDS011;46919;45.816;3.104;2022-08-25T01:01:29;6.07;;;1.40;;
61038;SDS011;46919;45.816;3.104;2022-08-25T01:03:54;3.55;;;1.45;;
61038;SDS011;46919;45.816;3.104;2022-08-25T01:06:20;6.20;;;1.98;;
61038;SDS011;46919;45.816;3.104;2022-08-25T01:08:45;2.72;;;1.63;;
61038;SDS011;46919;45.816;3.104;2022-08-25T01:11:11;2.13;;;1.33;;
61038;SDS011;46919;45.816;3.104;2022-08-25T01:13:41;1.38;;;1.25;;
61038;SDS011;46919;45.816;3.104;2022-08-25T01:16:10;2.35;;;1.30;;
61038;SDS011;46919;45.816;3.104;2022-08-25T01:18:41;2.17;;;1.77;;
61038;SDS011;46919;45.816;3.104;2022-08-25T01:21:12;5.80;;;1.55;;
61038;SDS011;46919;45.816;3.104;2022-08-25T01:23:38;3.20;;;1.27;;
61038;SDS011;46919;45.816;3.104;2022-08-25T01:26:06;4.75;;;1.67;;
61038;SDS011;46919;45.816;3.104;2022-08-25T01:28:40;9.40;;;1.92;;
61038;SDS011;46919;45.816;3.104;2022-08-25T01:31:26;3.03;;;1.50;;
61038;SDS011;46919;45.816;3.104;2022-08-25T01:33:52;4.60;;;1.40;;
61038;SDS011;46919;45.816;3.104;2022-08-25T01:36:18;4.43;;;1.25;;
61038;SDS011;46919;45.816;3.104;2022-08-25T01:38:44;4.15;;;1.60;;
61038;SDS011;46919;45.816;3.104;2022-08-25T01:41:10;2.30;;;1.50;;
61038;SDS011;46919;45.816;3.104;2022-08-25T01:43:36;1.77;;;1.50;;
61038;SDS011;46919;45.816;3.104;2022-08-25T01:46:02;3.33;;;1.80;;
61038;SDS011;46919;45.816;3.104;2022-08-25T01:48:28;2.97;;;1.70;;
61038;SDS011;46919;45.816;3.104;2022-08-25T01:50:53;4.40;;;2.20;;
61038;SDS011;46919;45.816;3.104;2022-08-25T01:53:26;3.78;;;1.67;;
61038;SDS011;46919;45.816;3.104;2022-08-25T01:55:53;2.42;;;1.67;;
61038;SDS011;46919;45.816;3.104;2022-08-25T01:58:29;4.32;;;1.95;;
61038;SDS011;46919;45.816;3.104;2022-08-25T02:00:57;3.75;;;1.80;;
61038;SDS011;46919;45.816;3.104;2022-08-25T02:03:25;6.43;;;1.90;;
61038;SDS011;46919;45.816;3.104;2022-08-25T02:05:52;5.22;;;2.35;;
61038;SDS011;46919;45.816;3.104;2022-08-25T02:08:18;4.85;;;1.98;;
61038;SDS011;46919;45.816;3.104;2022-08-25T02:10:44;4.78;;;1.75;;
61038;SDS011;46919;45.816;3.104;2022-08-25T02:13:10;3.15;;;2.40;;
61038;SDS011;46919;45.816;3.104;2022-08-25T02:15:43;2.72;;;2.00;;
61038;SDS011;46919;45.816;3.104;2022-08-25T02:18:11;4.03;;;1.80;;
61038;SDS011;46919;45.816;3.104;2022-08-25T02:20:38;3.42;;;1.90;;
61038;SDS011;46919;45.816;3.104;2022-08-25T02:23:03;2.75;;;1.70;;
61038;SDS011;46919;45.816;3.104;2022-08-25T02:25:29;1.40;;;1.30;;
61038;SDS011;46919;45.816;3.104;2022-08-25T02:27:54;3.45;;;1.75;;
61038;SDS011;46919;45.816;3.104;2022-08-25T02:30:20;3.22;;;1.67;;
61038;SDS011;46919;45.816;3.104;2022-08-25T02:32:46;1.70;;;1.60;;
61038;SDS011;46919;45.816;3.104;2022-08-25T02:35:11;3.72;;;1.75;;
61038;SDS011;46919;45.816;3.104;2022-08-25T02:37:37;4.10;;;1.58;;
61038;SDS011;46919;45.816;3.104;2022-08-25T02:40:03;3.25;;;1.58;;
61038;SDS011;46919;45.816;3.104;2022-08-25T02:42:29;4.43;;;1.50;;
61038;SDS011;46919;45.816;3.104;2022-08-25T02:44:54;3.88;;;1.27;;
61038;SDS011;46919;45.816;3.104;2022-08-25T02:47:20;6.35;;;1.50;;
61038;SDS011;46919;45.816;3.104;2022-08-25T02:49:46;5.38;;;1.52;;
61038;SDS011;46919;45.816;3.104;2022-08-25T02:52:12;2.90;;;1.63;;
61038;SDS011;46919;45.816;3.104;2022-08-25T02:54:39;2.08;;;1.73;;
61038;SDS011;46919;45.816;3.104;2022-08-25T02:57:04;2.38;;;1.80;;
61038;SDS011;46919;45.816;3.104;2022-08-25T02:59:30;3.40;;;1.80;;
61038;SDS011;46919;45.816;3.104;2022-08-25T03:01:55;3.05;;;1.83;;
61038;SDS011;46919;45.816;3.104;2022-08-25T03:04:21;3.75;;;1.65;;
61038;SDS011;46919;45.816;3.104;2022-08-25T03:06:46;6.20;;;1.95;;
61038;SDS011;46919;45.816;3.104;2022-08-25T03:09:12;4.20;;;1.60;;
61038;SDS011;46919;45.816;3.104;2022-08-25T03:11:38;5.10;;;1.73;;
61038;SDS011;46919;45.816;3.104;2022-08-25T03:14:04;4.85;;;1.65;;
61038;SDS011;46919;45.816;3.104;2022-08-25T03:16:31;2.75;;;1.63;;
61038;SDS011;46919;45.816;3.104;2022-08-25T03:18:57;4.97;;;1.70;;
61038;SDS011;46919;45.816;3.104;2022-08-25T03:21:23;3.40;;;1.70;;
61038;SDS011;46919;45.816;3.104;2022-08-25T03:23:50;3.00;;;1.98;;
61038;SDS011;46919;45.816;3.104;2022-08-25T03:26:16;4.15;;;1.80;;
61038;SDS011;46919;45.816;3.104;2022-08-25T03:29:00;5.38;;;2.15;;
61038;SDS011;46919;45.816;3.104;2022-08-25T03:31:29;2.25;;;1.77;;
61038;SDS011;46919;45.816;3.104;2022-08-25T03:33:56;3.45;;;1.73;;
61038;SDS011;46919;45.816;3.104;2022-08-25T03:36:22;5.15;;;2.13;;
61038;SDS011;46919;45.816;3.104;2022-08-25T03:38:48;4.60;;;2.10;;
61038;SDS011;46919;45.816;3.104;2022-08-25T03:41:16;3.50;;;1.75;;
61038;SDS011;46919;45.816;3.104;2022-08-25T03:43:45;2.25;;;1.70;;
61038;SDS011;46919;45.816;3.104;2022-08-25T03:46:20;2.45;;;1.70;;
61038;SDS011;46919;45.816;3.104;2022-08-25T03:48:48;4.25;;;1.98;;
61038;SDS011;46919;45.816;3.104;2022-08-25T03:51:24;7.30;;;2.15;;
61038;SDS011;46919;45.816;3.104;2022-08-25T03:53:55;3.75;;;1.90;;
61038;SDS011;46919;45.816;3.104;2022-08-25T03:56:22;6.05;;;1.80;;
61038;SDS011;46919;45.816;3.104;2022-08-25T03:58:47;3.50;;;1.63;;
61038;SDS011;46919;45.816;3.104;2022-08-25T04:01:14;4.47;;;1.90;;
61038;SDS011;46919;45.816;3.104;2022-08-25T04:03:40;4.88;;;1.73;;
61038;SDS011;46919;45.816;3.104;2022-08-25T04:06:06;4.65;;;1.88;;
61038;SDS011;46919;45.816;3.104;2022-08-25T04:08:32;4.80;;;1.90;;
61038;SDS011;46919;45.816;3.104;2022-08-25T04:10:58;3.55;;;1.92;;
61038;SDS011;46919;45.816;3.104;2022-08-25T04:13:29;2.85;;;2.00;;
61038;SDS011;46919;45.816;3.104;2022-08-25T04:15:54;1.95;;;1.65;;
61038;SDS011;46919;45.816;3.104;2022-08-25T04:18:19;3.20;;;2.00;;
61038;SDS011;46919;45.816;3.104;2022-08-25T04:20:45;4.47;;;1.85;;
61038;SDS011;46919;45.816;3.104;2022-08-25T04:23:11;4.43;;;1.90;;
61038;SDS011;46919;45.816;3.104;2022-08-25T04:25:38;4.53;;;1.85;;
61038;SDS011;46919;45.816;3.104;2022-08-25T04:28:06;2.03;;;1.58;;
61038;SDS011;46919;45.816;3.104;2022-08-25T04:30:33;3.10;;;1.83;;
61038;SDS011;46919;45.816;3.104;2022-08-25T04:32:58;8.10;;;1.95;;
61038;SDS011;46919;45.816;3.104;2022-08-25T04:35:24;4.60;;;1.95;;
61038;SDS011;46919;45.816;3.104;2022-08-25T04:37:49;2.78;;;2.20;;
61038;SDS011;46919;45.816;3.104;2022-08-25T04:40:15;5.65;;;1.90;;
61038;SDS011;46919;45.816;3.104;2022-08-25T04:42:40;6.05;;;2.00;;
61038;SDS011;46919;45.816;3.104;2022-08-25T04:45:06;3.88;;;1.55;;
61038;SDS011;46919;45.816;3.104;2022-08-25T04:47:35;3.22;;;1.80;;
61038;SDS011;46919;45.816;3.104;2022-08-25T04:50:01;1.85;;;1.73;;
61038;SDS011;46919;45.816;3.104;2022-08-25T04:52:27;2.80;;;1.80;;
61038;SDS011;46919;45.816;3.104;2022-08-25T04:54:53;2.28;;;1.83;;
61038;SDS011;46919;45.816;3.104;2022-08-25T04:57:18;3.05;;;1.85;;
61038;SDS011;46919;45.816;3.104;2022-08-25T04:59:43;4.35;;;2.17;;
61038;SDS011;46919;45.816;3.104;2022-08-25T05:02:09;4.70;;;2.05;;
61038;SDS011;46919;45.816;3.104;2022-08-25T05:04:35;4.53;;;1.80;;
61038;SDS011;46919;45.816;3.104;2022-08-25T05:07:00;2.78;;;1.77;;
61038;SDS011;46919;45.816;3.104;2022-08-25T05:09:26;5.40;;;2.17;;
61038;SDS011;46919;45.816;3.104;2022-08-25T05:11:53;3.35;;;2.03;;
61038;SDS011;46919;45.816;3.104;2022-08-25T05:14:19;3.47;;;1.92;;
61038;SDS011;46919;45.816;3.104;2022-08-25T05:16:46;4.45;;;2.00;;
61038;SDS011;46919;45.816;3.104;2022-08-25T05:19:12;3.53;;;2.45;;
61038;SDS011;46919;45.816;3.104;2022-08-25T05:21:38;2.83;;;2.08;;
61038;SDS011;46919;45.816;3.104;2022-08-25T05:24:04;4.65;;;2.17;;
61038;SDS011;46919;45.816;3.104;2022-08-25T05:26:30;7.78;;;2.50;;
61038;SDS011;46919;45.816;3.104;2022-08-25T05:28:57;5.50;;;2.83;;
61038;SDS011;46919;45.816;3.104;2022-08-25T05:31:24;3.38;;;2.20;;
61038;SDS011;46919;45.816;3.104;2022-08-25T05:33:52;4.30;;;2.50;;
61038;SDS011;46919;45.816;3.104;2022-08-25T05:36:18;3.20;;;1.90;;
61038;SDS011;46919;45.816;3.104;2022-08-25T05:38:44;4.57;;;2.00;;
61038;SDS011;46919;45.816;3.104;2022-08-25T05:41:11;2.63;;;2.10;;
61038;SDS011;46919;45.816;3.104;2022-08-25T05:43:40;3.78;;;2.00;;
61038;SDS011;46919;45.816;3.104;2022-08-25T05:46:07;3.60;;;2.20;;
61038;SDS011;46919;45.816;3.104;2022-08-25T05:48:33;5.32;;;2.00;;
61038;SDS011;46919;45.816;3.104;2022-08-25T05:51:00;3.83;;;2.50;;
61038;SDS011;46919;45.816;3.104;2022-08-25T05:53:27;5.90;;;2.47;;
61038;SDS011;46919;45.816;3.104;2022-08-25T05:55:54;8.15;;;3.38;;
61038;SDS011;46919;45.816;3.104;2022-08-25T05:58:21;5.40;;;3.63;;
61038;SDS011;46919;45.816;3.104;2022-08-25T06:00:47;7.03;;;2.67;;
61038;SDS011;46919;45.816;3.104;2022-08-25T06:03:13;2.92;;;2.20;;
61038;SDS011;46919;45.816;3.104;2022-08-25T06:05:38;3.20;;;2.33;;
61038;SDS011;46919;45.816;3.104;2022-08-25T06:08:05;3.85;;;2.40;;
61038;SDS011;46919;45.816;3.104;2022-08-25T06:10:31;4.57;;;2.75;;
61038;SDS011;46919;45.816;3.104;2022-08-25T06:12:57;8.35;;;2.70;;
61038;SDS011;46919;45.816;3.104;2022-08-25T06:15:23;8.38;;;2.95;;
61038;SDS011;46919;45.816;3.104;2022-08-25T06:17:49;5.68;;;2.67;;
61038;SDS011;46919;45.816;3.104;2022-08-25T06:20:17;5.82;;;2.80;;
61038;SDS011;46919;45.816;3.104;2022-08-25T06:22:48;3.70;;;2.58;;
61038;SDS011;46919;45.816;3.104;2022-08-25T06:25:14;3.88;;;2.63;;
61038;SDS011;46919;45.816;3.104;2022-08-25T06:27:42;5.18;;;2.65;;
61038;SDS011;46919;45.816;3.104;2022-08-25T06:30:08;5.88;;;2.35;;
61038;SDS011;46919;45.816;3.104;2022-08-25T06:32:37;6.88;;;2.60;;
61038;SDS011;46919;45.816;3.104;2022-08-25T06:35:07;6.18;;;2.60;;
61038;SDS011;46919;45.816;3.104;2022-08-25T06:37:35;8.77;;;2.25;;
61038;SDS011;46919;45.816;3.104;2022-08-25T06:40:01;5.93;;;2.50;;
61038;SDS011;46919;45.816;3.104;2022-08-25T06:42:28;4.72;;;2.65;;
61038;SDS011;46919;45.816;3.104;2022-08-25T06:44:54;3.53;;;2.35;;
61038;SDS011;46919;45.816;3.104;2022-08-25T06:47:19;4.97;;;2.30;;
61038;SDS011;46919;45.816;3.104;2022-08-25T06:49:44;4.57;;;2.33;;
61038;SDS011;46919;45.816;3.104;2022-08-25T06:52:11;6.60;;;2.92;;
61038;SDS011;46919;45.816;3.104;2022-08-25T06:54:37;5.53;;;2.83;;
61038;SDS011;46919;45.816;3.104;2022-08-25T06:57:03;6.55;;;3.10;;
61038;SDS011;46919;45.816;3.104;2022-08-25T06:59:29;6.13;;;3.10;;
61038;SDS011;46919;45.816;3.104;2022-08-25T07:01:55;7.22;;;3.28;;
61038;SDS011;46919;45.816;3.104;2022-08-25T07:04:20;6.93;;;3.15;;
61038;SDS011;46919;45.816;3.104;2022-08-25T07:06:45;9.02;;;3.20;;
61038;SDS011;46919;45.816;3.104;2022-08-25T07:09:12;6.22;;;3.63;;
61038;SDS011;46919;45.816;3.104;2022-08-25T07:11:38;7.10;;;4.18;;
61038;SDS011;46919;45.816;3.104;2022-08-25T07:14:06;8.75;;;4.32;;
61038;SDS011;46919;45.816;3.104;2022-08-25T07:16:32;6.53;;;4.45;;
61038;SDS011;46919;45.816;3.104;2022-08-25T07:18:59;6.55;;;4.30;;
61038;SDS011;46919;45.816;3.104;2022-08-25T07:21:26;9.82;;;4.20;;
61038;SDS011;46919;45.816;3.104;2022-08-25T07:23:53;9.70;;;4.03;;
61038;SDS011;46919;45.816;3.104;2022-08-25T07:26:20;9.93;;;4.10;;
61038;SDS011;46919;45.816;3.104;2022-08-25T07:28:47;5.10;;;3.72;;
61038;SDS011;46919;45.816;3.104;2022-08-25T07:31:13;5.55;;;3.88;;
61038;SDS011;46919;45.816;3.104;2022-08-25T07:33:39;8.38;;;3.47;;
61038;SDS011;46919;45.816;3.104;2022-08-25T07:36:25;4.93;;;3.30;;
61038;SDS011;46919;45.816;3.104;2022-08-25T07:38:50;4.35;;;3.58;;
61038;SDS011;46919;45.816;3.104;2022-08-25T07:41:16;4.60;;;3.05;;
61038;SDS011;46919;45.816;3.104;2022-08-25T07:43:41;4.47;;;3.35;;
61038;SDS011;46919;45.816;3.104;2022-08-25T07:46:07;4.70;;;2.97;;
61038;SDS011;46919;45.816;3.104;2022-08-25T07:48:32;6.20;;;3.58;;
61038;SDS011;46919;45.816;3.104;2022-08-25T07:50:58;8.45;;;4.18;;
61038;SDS011;46919;45.816;3.104;2022-08-25T07:53:23;5.45;;;3.25;;
61038;SDS011;46919;45.816;3.104;2022-08-25T07:55:49;7.05;;;4.18;;
61038;SDS011;46919;45.816;3.104;2022-08-25T07:58:14;9.63;;;3.92;;
61038;SDS011;46919;45.816;3.104;2022-08-25T08:00:40;9.45;;;4.00;;
61038;SDS011;46919;45.816;3.104;2022-08-25T08:03:06;7.97;;;3.88;;
61038;SDS011;46919;45.816;3.104;2022-08-25T08:05:32;6.95;;;3.30;;
61038;SDS011;46919;45.816;3.104;2022-08-25T08:07:59;7.28;;;3.28;;
61038;SDS011;46919;45.816;3.104;2022-08-25T08:10:26;10.20;;;3.65;;
61038;SDS011;46919;45.816;3.104;2022-08-25T08:12:52;8.07;;;3.65;;
61038;SDS011;46919;45.816;3.104;2022-08-25T08:15:18;7.75;;;3.50;;
61038;SDS011;46919;45.816;3.104;2022-08-25T08:17:43;9.27;;;3.58;;
61038;SDS011;46919;45.816;3.104;2022-08-25T08:20:10;7.63;;;3.20;;
61038;SDS011;46919;45.816;3.104;2022-08-25T08:22:37;6.03;;;3.20;;
61038;SDS011;46919;45.816;3.104;2022-08-25T08:25:05;6.45;;;3.53;;
61038;SDS011;46919;45.816;3.104;2022-08-25T08:27:32;5.22;;;3.20;;
61038;SDS011;46919;45.816;3.104;2022-08-25T08:29:58;8.23;;;3.60;;
61038;SDS011;46919;45.816;3.104;2022-08-25T08:32:24;5.50;;;3.35;;
61038;SDS011;46919;45.816;3.104;2022-08-25T08:34:50;6.15;;;3.67;;
61038;SDS011;46919;45.816;3.104;2022-08-25T08:37:15;9.38;;;3.88;;
61038;SDS011;46919;45.816;3.104;2022-08-25T08:39:41;4.80;;;3.40;;
61038;SDS011;46919;45.816;3.104;2022-08-25T08:45:01;6.18;;;3.63;;
61038;SDS011;46919;45.816;3.104;2022-08-25T08:56:04;6.57;;;3.42;;
61038;SDS011;46919;45.816;3.104;2022-08-25T08:58:44;12.40;;;3.60;;
61038;SDS011;46919;45.816;3.104;2022-08-25T09:01:15;9.25;;;3.05;;
61038;SDS011;46919;45.816;3.104;2022-08-25T09:03:51;4.88;;;2.80;;
61038;SDS011;46919;45.816;3.104;2022-08-25T09:06:27;4.22;;;2.45;;
61038;SDS011;46919;45.816;3.104;2022-08-25T09:08:57;3.08;;;2.40;;
61038;SDS011;46919;45.816;3.104;2022-08-25T09:23:04;8.80;;;1.90;;
61038;SDS011;46919;45.816;3.104;2022-08-25T09:28:48;4.15;;;2.20;;
61038;SDS011;46919;45.816;3.104;2022-08-25T09:31:23;2.58;;;1.80;;
61038;SDS011;46919;45.816;3.104;2022-08-25T09:33:52;7.88;;;2.00;;
61038;SDS011;46919;45.816;3.104;2022-08-25T09:36:21;2.75;;;2.15;;
61038;SDS011;46919;45.816;3.104;2022-08-25T09:38:47;2.45;;;1.90;;
61038;SDS011;46919;45.816;3.104;2022-08-25T09:41:14;3.75;;;2.00;;
61038;SDS011;46919;45.816;3.104;2022-08-25T09:43:42;2.97;;;1.92;;
61038;SDS011;46919;45.816;3.104;2022-08-25T09:46:23;2.33;;;1.83;;
61038;SDS011;46919;45.816;3.104;2022-08-25T09:48:52;2.75;;;2.22;;
61038;SDS011;46919;45.816;3.104;2022-08-25T09:53:55;1.90;;;1.80;;
61038;SDS011;46919;45.816;3.104;2022-08-25T09:56:25;4.20;;;2.00;;
61038;SDS011;46919;45.816;3.104;2022-08-25T09:58:54;3.40;;;2.08;;
61038;SDS011;46919;45.816;3.104;2022-08-25T10:01:22;5.80;;;2.00;;
61038;SDS011;46919;45.816;3.104;2022-08-25T10:03:55;6.72;;;1.98;;
61038;SDS011;46919;45.816;3.104;2022-08-25T10:06:23;2.35;;;1.63;;
61038;SDS011;46919;45.816;3.104;2022-08-25T10:08:53;2.65;;;1.83;;
61038;SDS011;46919;45.816;3.104;2022-08-25T10:16:44;4.15;;;2.13;;
61038;SDS011;46919;45.816;3.104;2022-08-25T10:21:45;5.03;;;1.90;;
61038;SDS011;46919;45.816;3.104;2022-08-25T10:24:30;2.90;;;2.00;;
61038;SDS011;46919;45.816;3.104;2022-08-25T10:27:00;5.22;;;1.92;;
61038;SDS011;46919;45.816;3.104;2022-08-25T10:29:57;3.13;;;2.22;;
61038;SDS011;46919;45.816;3.104;2022-08-25T10:49:02;2.75;;;2.05;;
61038;SDS011;46919;45.816;3.104;2022-08-25T10:51:51;5.68;;;1.90;;
61038;SDS011;46919;45.816;3.104;2022-08-25T10:57:59;1.92;;;1.70;;
61038;SDS011;46919;45.816;3.104;2022-08-25T11:00:45;3.65;;;1.42;;
61038;SDS011;46919;45.816;3.104;2022-08-25T11:03:30;2.80;;;1.70;;
61038;SDS011;46919;45.816;3.104;2022-08-25T11:06:29;2.67;;;1.40;;
61038;SDS011;46919;45.816;3.104;2022-08-25T11:09:13;1.98;;;1.40;;
61038;SDS011;46919;45.816;3.104;2022-08-25T11:11:46;2.40;;;1.47;;
61038;SDS011;46919;45.816;3.104;2022-08-25T11:14:20;5.20;;;1.30;;
61038;SDS011;46919;45.816;3.104;2022-08-25T11:16:54;2.13;;;1.42;;
61038;SDS011;46919;45.816;3.104;2022-08-25T11:27:46;1.88;;;1.50;;
61038;SDS011;46919;45.816;3.104;2022-08-25T11:30:19;1.70;;;1.10;;
61038;SDS011;46919;45.816;3.104;2022-08-25T11:32:52;2.55;;;1.10;;
61038;SDS011;46919;45.816;3.104;2022-08-25T11:35:25;3.38;;;1.20;;
61038;SDS011;46919;45.816;3.104;2022-08-25T11:51:48;2.25;;;1.10;;
61038;SDS011;46919;45.816;3.104;2022-08-25T11:54:19;3.85;;;1.50;;
61038;SDS011;46919;45.816;3.104;2022-08-25T11:57:06;3.85;;;1.20;;
61038;SDS011;46919;45.816;3.104;2022-08-25T12:02:29;1.40;;;1.25;;
61038;SDS011;46919;45.816;3.104;2022-08-25T12:05:02;3.08;;;1.23;;
61038;SDS011;46919;45.816;3.104;2022-08-25T12:10:57;3.45;;;1.30;;
61038;SDS011;46919;45.816;3.104;2022-08-25T12:13:37;1.95;;;1.17;;
61038;SDS011;46919;45.816;3.104;2022-08-25T12:27:08;1.23;;;1.00;;
61038;SDS011;46919;45.816;3.104;2022-08-25T12:29:48;2.17;;;0.90;;
61038;SDS011;46919;45.816;3.104;2022-08-25T12:45:39;3.13;;;1.15;;
61038;SDS011;46919;45.816;3.104;2022-08-25T12:54:11;1.55;;;1.15;;
61038;SDS011;46919;45.816;3.104;2022-08-25T12:56:51;2.03;;;1.20;;
61038;SDS011;46919;45.816;3.104;2022-08-25T12:59:21;3.47;;;1.65;;
61038;SDS011;46919;45.816;3.104;2022-08-25T13:05:12;1.17;;;1.00;;
61038;SDS011;46919;45.816;3.104;2022-08-25T13:10:44;2.20;;;1.48;;
61038;SDS011;46919;45.816;3.104;2022-08-25T13:16:15;1.80;;;1.30;;
61038;SDS011;46919;45.816;3.104;2022-08-25T13:19:01;2.25;;;1.10;;
61038;SDS011;46919;45.816;3.104;2022-08-25T13:23:58;2.28;;;1.30;;
61038;SDS011;46919;45.816;3.104;2022-08-25T13:28:56;3.08;;;1.38;;
61038;SDS011;46919;45.816;3.104;2022-08-25T13:31:22;3.97;;;1.40;;
61038;SDS011;46919;45.816;3.104;2022-08-25T13:33:53;1.40;;;1.30;;
61038;SDS011;46919;45.816;3.104;2022-08-25T13:36:26;1.13;;;1.00;;
61038;SDS011;46919;45.816;3.104;2022-08-25T13:39:14;2.08;;;1.00;;
61038;SDS011;46919;45.816;3.104;2022-08-25T13:41:46;5.53;;;1.20;;
61038;SDS011;46919;45.816;3.104;2022-08-25T13:44:19;2.47;;;1.13;;
61038;SDS011;46919;45.816;3.104;2022-08-25T13:46:46;4.18;;;1.00;;
61038;SDS011;46919;45.816;3.104;2022-08-25T13:49:23;1.73;;;1.25;;
61038;SDS011;46919;45.816;3.104;2022-08-25T13:51:51;1.73;;;1.33;;
61038;SDS011;46919;45.816;3.104;2022-08-25T13:54:26;2.05;;;1.30;;
61038;SDS011;46919;45.816;3.104;2022-08-25T13:57:01;1.88;;;1.10;;
61038;SDS011;46919;45.816;3.104;2022-08-25T13:59:33;3.17;;;1.10;;
61038;SDS011;46919;45.816;3.104;2022-08-25T14:04:30;4.85;;;1.10;;
61038;SDS011;46919;45.816;3.104;2022-08-25T14:09:50;1.85;;;1.00;;
61038;SDS011;46919;45.816;3.104;2022-08-25T14:18:29;4.20;;;1.38;;
61038;SDS011;46919;45.816;3.104;2022-08-25T14:20:44;5.18;;;1.10;;
61038;SDS011;46919;45.816;3.104;2022-08-25T14:23:14;1.30;;;1.20;;
61038;SDS011;46919;45.816;3.104;2022-08-25T14:25:41;3.28;;;1.00;;
61038;SDS011;46919;45.816;3.104;2022-08-25T14:28:12;6.32;;;1.30;;
61038;SDS011;46919;45.816;3.104;2022-08-25T14:30:50;2.90;;;1.00;;
61038;SDS011;46919;45.816;3.104;2022-08-25T14:35:52;4.30;;;1.23;;
61038;SDS011;46919;45.816;3.104;2022-08-25T14:38:19;1.63;;;1.20;;
61038;SDS011;46919;45.816;3.104;2022-08-25T14:40:46;4.03;;;1.40;;
61038;SDS011;46919;45.816;3.104;2022-08-25T14:43:12;3.30;;;1.20;;
61038;SDS011;46919;45.816;3.104;2022-08-25T14:45:39;1.77;;;1.40;;
61038;SDS011;46919;45.816;3.104;2022-08-25T14:48:07;3.38;;;1.40;;
61038;SDS011;46919;45.816;3.104;2022-08-25T14:50:37;2.83;;;1.10;;
61038;SDS011;46919;45.816;3.104;2022-08-25T14:53:03;5.53;;;1.40;;
61038;SDS011;46919;45.816;3.104;2022-08-25T14:55:29;2.85;;;1.15;;
61038;SDS011;46919;45.816;3.104;2022-08-25T14:57:55;2.47;;;1.27;;
61038;SDS011;46919;45.816;3.104;2022-08-25T15:00:21;1.73;;;1.20;;
61038;SDS011;46919;45.816;3.104;2022-08-25T15:02:47;3.75;;;1.38;;
61038;SDS011;46919;45.816;3.104;2022-08-25T15:05:15;5.18;;;1.40;;
61038;SDS011;46919;45.816;3.104;2022-08-25T15:07:48;2.67;;;1.35;;
61038;SDS011;46919;45.816;3.104;2022-08-25T15:10:32;4.13;;;1.30;;
61038;SDS011;46919;45.816;3.104;2022-08-25T15:12:57;6.40;;;1.60;;
61038;SDS011;46919;45.816;3.104;2022-08-25T15:15:22;3.85;;;1.17;;
61038;SDS011;46919;45.816;3.104;2022-08-25T15:17:50;4.15;;;1.30;;
61038;SDS011;46919;45.816;3.104;2022-08-25T15:20:16;2.35;;;1.38;;
61038;SDS011;46919;45.816;3.104;2022-08-25T15:22:42;2.97;;;1.25;;
61038;SDS011;46919;45.816;3.104;2022-08-25T15:25:09;4.40;;;1.17;;
61038;SDS011;46919;45.816;3.104;2022-08-25T15:27:35;1.25;;;1.10;;
61038;SDS011;46919;45.816;3.104;2022-08-25T15:30:00;3.78;;;1.40;;
61038;SDS011;46919;45.816;3.104;2022-08-25T15:32:26;2.13;;;1.20;;
61038;SDS011;46919;45.816;3.104;2022-08-25T15:34:52;1.35;;;1.25;;
61038;SDS011;46919;45.816;3.104;2022-08-25T15:37:18;3.55;;;1.25;;
61038;SDS011;46919;45.816;3.104;2022-08-25T15:39:43;1.70;;;1.20;;
61038;SDS011;46919;45.816;3.104;2022-08-25T15:42:10;2.92;;;1.40;;
61038;SDS011;46919;45.816;3.104;2022-08-25T15:44:39;1.38;;;1.10;;
61038;SDS011;46919;45.816;3.104;2022-08-25T15:47:05;2.05;;;1.10;;
61038;SDS011;46919;45.816;3.104;2022-08-25T15:49:31;2.70;;;1.17;;
61038;SDS011;46919;45.816;3.104;2022-08-25T15:51:57;3.45;;;1.20;;
61038;SDS011;46919;45.816;3.104;2022-08-25T15:54:23;4.05;;;1.45;;
61038;SDS011;46919;45.816;3.104;2022-08-25T15:56:50;4.55;;;1.30;;
61038;SDS011;46919;45.816;3.104;2022-08-25T15:59:16;1.48;;;1.05;;
61038;SDS011;46919;45.816;3.104;2022-08-25T16:01:41;2.97;;;1.33;;
61038;SDS011;46919;45.816;3.104;2022-08-25T16:04:08;2.40;;;1.10;;
61038;SDS011;46919;45.816;3.104;2022-08-25T16:06:34;1.48;;;1.30;;
61038;SDS011;46919;45.816;3.104;2022-08-25T16:08:59;3.85;;;1.17;;
61038;SDS011;46919;45.816;3.104;2022-08-25T16:11:26;2.60;;;1.10;;
61038;SDS011;46919;45.816;3.104;2022-08-25T16:13:53;3.05;;;1.08;;
61038;SDS011;46919;45.816;3.104;2022-08-25T16:16:20;2.67;;;1.00;;
61038;SDS011;46919;45.816;3.104;2022-08-25T16:18:48;4.32;;;1.33;;
61038;SDS011;46919;45.816;3.104;2022-08-25T16:21:15;2.33;;;1.20;;
61038;SDS011;46919;45.816;3.104;2022-08-25T16:23:43;1.15;;;1.05;;
61038;SDS011;46919;45.816;3.104;2022-08-25T16:26:09;4.43;;;1.20;;
61038;SDS011;46919;45.816;3.104;2022-08-25T16:28:36;3.70;;;1.13;;
61038;SDS011;46919;45.816;3.104;2022-08-25T16:31:04;2.72;;;1.20;;
61038;SDS011;46919;45.816;3.104;2022-08-25T16:33:29;1.20;;;1.08;;
61038;SDS011;46919;45.816;3.104;2022-08-25T16:36:02;4.20;;;1.27;;
61038;SDS011;46919;45.816;3.104;2022-08-25T16:38:32;1.35;;;1.15;;
61038;SDS011;46919;45.816;3.104;2022-08-25T16:40:57;7.32;;;1.30;;
61038;SDS011;46919;45.816;3.104;2022-08-25T16:43:23;3.25;;;0.90;;
61038;SDS011;46919;45.816;3.104;2022-08-25T16:45:55;3.30;;;1.10;;
61038;SDS011;46919;45.816;3.104;2022-08-25T16:48:22;3.72;;;1.48;;
61038;SDS011;46919;45.816;3.104;2022-08-25T16:50:47;3.83;;;1.20;;
61038;SDS011;46919;45.816;3.104;2022-08-25T16:53:13;2.42;;;1.23;;
61038;SDS011;46919;45.816;3.104;2022-08-25T16:56:01;2.08;;;1.38;;
61038;SDS011;46919;45.816;3.104;2022-08-25T16:58:27;1.70;;;1.20;;
61038;SDS011;46919;45.816;3.104;2022-08-25T17:00:52;2.42;;;1.23;;
61038;SDS011;46919;45.816;3.104;2022-08-25T17:03:18;4.43;;;1.23;;
61038;SDS011;46919;45.816;3.104;2022-08-25T17:05:43;2.35;;;1.35;;
61038;SDS011;46919;45.816;3.104;2022-08-25T17:08:09;3.50;;;1.30;;
61038;SDS011;46919;45.816;3.104;2022-08-25T17:10:53;4.38;;;1.48;;
61038;SDS011;46919;45.816;3.104;2022-08-25T17:13:26;2.70;;;1.25;;
61038;SDS011;46919;45.816;3.104;2022-08-25T17:15:52;3.05;;;1.30;;
61038;SDS011;46919;45.816;3.104;2022-08-25T17:18:17;1.42;;;1.10;;
61038;SDS011;46919;45.816;3.104;2022-08-25T17:20:43;3.50;;;1.25;;